Time;durP1;ratioP1;P1;durP2;ratioP2;P2;SDS_P1;SDS_P2;PMS_P1;PMS_P2;Temp;Humidity;BMP_temperature;BMP_pressure;BME280_temperature;BME280_humidity;BME280_pressure;Samples;Min_cycle;Max_cycle;Signal;HPM_P1;HPM_P2
2023/05/31 00:01:33;;;;;;;;;;;18.90;52.30;;;;;;5094419;28;19927;-72
2023/05/31 00:03:58;;;;;;;;;;;18.90;52.30;;;;;;5077198;28;19920;-70
2023/05/31 00:06:24;;;;;;;;;;;18.90;52.30;;;;;;5077069;28;20002;-71
2023/05/31 00:08:49;;;;;;;;;;;18.90;52.30;;;;;;5095170;28;20359;-71
2023/05/31 00:11:15;;;;;;;;;;;18.90;52.30;;;;;;5077242;28;20415;-71
2023/05/31 00:13:40;;;;;;;;;;;18.90;52.30;;;;;;5095371;28;19931;-69
2023/05/31 00:16:06;;;;;;;;;;;18.90;52.30;;;;;;5095369;28;20014;-70
2023/05/31 00:18:32;;;;;;;;;;;18.90;52.30;;;;;;5076308;28;19920;-70
2023/05/31 00:20:57;;;;;;;;;;;18.80;52.30;;;;;;5075595;28;19945;-71
2023/05/31 00:23:23;;;;;;;;;;;18.80;52.30;;;;;;5075970;28;19946;-71
2023/05/31 00:25:48;;;;;;;;;;;18.80;52.30;;;;;;5075853;28;20018;-71
2023/05/31 00:28:14;;;;;;;;;;;18.80;52.30;;;;;;5094061;28;19934;-71
2023/05/31 00:30:40;;;;;;;;;;;18.80;52.30;;;;;;5076315;28;19950;-71
2023/05/31 00:33:05;;;;;;;;;;;18.80;52.30;;;;;;5076308;28;19973;-71
2023/05/31 00:35:31;;;;;;;;;;;18.80;52.30;;;;;;5075954;28;20403;-71
2023/05/31 00:37:56;;;;;;;;;;;18.80;52.30;;;;;;5076191;28;20015;-71
2023/05/31 00:40:21;;;;;;;;;;;18.80;52.30;;;;;;5076242;28;20260;-71
2023/05/31 00:42:47;;;;;;;;;;;18.80;52.30;;;;;;5094123;28;19920;-71
2023/05/31 00:45:13;;;;;;;;;;;18.80;52.30;;;;;;5094326;28;19994;-71
2023/05/31 00:47:38;;;;;;;;;;;18.80;52.30;;;;;;5094363;28;19931;-70
2023/05/31 00:50:04;;;;;;;;;;;18.70;52.30;;;;;;5094645;28;19920;-71
2023/05/31 00:52:31;;;;;;;;;;;18.70;52.20;;;;;;5075890;28;19923;-70
2023/05/31 00:54:56;;;;;;;;;;;18.70;52.20;;;;;;5075908;28;19927;-71
2023/05/31 00:57:22;;;;;;;;;;;18.70;52.20;;;;;;5075334;28;19924;-71
2023/05/31 00:59:47;;;;;;;;;;;18.70;52.20;;;;;;5093911;28;19920;-71
2023/05/31 01:02:14;;;;;;;;;;;18.70;52.30;;;;;;5075804;28;20410;-71
2023/05/31 01:04:39;;;;;;;;;;;18.70;52.20;;;;;;5076185;28;20034;-71
2023/05/31 01:07:06;;;;;;;;;;;18.70;52.20;;;;;;5075906;28;20375;-70
2023/05/31 01:09:32;;;;;;;;;;;18.70;52.20;;;;;;5094154;28;20375;-70
2023/05/31 01:14:45;;;;;;;;;;;18.70;52.20;;;;;;5110338;27;19918;-71
2023/05/31 01:17:31;;;;;;;;;;;18.70;52.20;;;;;;5109071;28;19927;-71
2023/05/31 01:19:59;;;;;;;;;;;18.70;52.20;;;;;;5108618;28;19920;-70
2023/05/31 01:22:44;;;;;;;;;;;18.70;52.30;;;;;;5108758;28;19923;-71
2023/05/31 01:27:53;;;;;;;;;;;18.70;52.20;;;;;;5109979;27;20371;-71
2023/05/31 01:30:20;;;;;;;;;;;18.60;52.20;;;;;;5109237;28;19920;-71
2023/05/31 01:32:47;;;;;;;;;;;18.70;52.30;;;;;;5108822;28;19920;-71
2023/05/31 01:35:13;;;;;;;;;;;18.60;52.20;;;;;;5109009;28;19952;-71
2023/05/31 01:37:39;;;;;;;;;;;18.60;52.20;;;;;;5108731;28;19973;-71
2023/05/31 01:40:05;;;;;;;;;;;18.60;52.20;;;;;;5143001;27;19928;-71
2023/05/31 01:42:31;;;;;;;;;;;18.60;52.10;;;;;;5109902;28;20006;-71
2023/05/31 01:44:57;;;;;;;;;;;18.60;52.10;;;;;;5108208;28;20011;-70
2023/05/31 01:47:23;;;;;;;;;;;18.60;52.20;;;;;;5107970;28;20579;-71
2023/05/31 01:49:49;;;;;;;;;;;18.60;52.20;;;;;;5109439;28;19926;-70
2023/05/31 01:52:15;;;;;;;;;;;18.60;52.20;;;;;;5108056;28;19962;-70
2023/05/31 01:54:40;;;;;;;;;;;18.60;52.20;;;;;;5109712;28;19967;-70
2023/05/31 01:57:07;;;;;;;;;;;18.60;52.20;;;;;;5108021;28;19920;-70
2023/05/31 01:59:34;;;;;;;;;;;18.60;52.20;;;;;;5108261;28;19926;-71
2023/05/31 02:02:00;;;;;;;;;;;18.50;52.10;;;;;;5109262;28;19920;-71
2023/05/31 02:04:25;;;;;;;;;;;18.60;52.10;;;;;;5109636;28;19920;-71
2023/05/31 02:06:51;;;;;;;;;;;18.50;52.10;;;;;;5107976;28;20395;-71
2023/05/31 02:09:18;;;;;;;;;;;18.60;52.10;;;;;;5107899;28;19971;-71
2023/05/31 02:11:43;;;;;;;;;;;18.50;52.10;;;;;;5107986;28;19934;-71
2023/05/31 02:14:09;;;;;;;;;;;18.50;52.10;;;;;;5109073;28;19920;-70
2023/05/31 02:16:34;;;;;;;;;;;18.50;52.10;;;;;;5142189;27;20028;-70
2023/05/31 02:19:00;;;;;;;;;;;18.50;52.10;;;;;;5107800;28;20052;-70
2023/05/31 02:21:26;;;;;;;;;;;18.50;52.10;;;;;;5107440;28;19920;-71
2023/05/31 02:23:51;;;;;;;;;;;18.50;52.00;;;;;;5109106;28;20003;-71
2023/05/31 02:26:17;;;;;;;;;;;18.50;52.10;;;;;;5107231;28;19990;-71
2023/05/31 02:28:42;;;;;;;;;;;18.40;52.10;;;;;;5107185;28;20458;-70
2023/05/31 02:31:08;;;;;;;;;;;18.40;52.10;;;;;;5107604;28;19933;-71
2023/05/31 02:33:33;;;;;;;;;;;18.40;52.10;;;;;;5107138;28;20279;-70
2023/05/31 02:35:59;;;;;;;;;;;18.40;52.00;;;;;;5108503;28;19920;-70
2023/05/31 02:38:25;;;;;;;;;;;18.40;52.10;;;;;;5099093;28;19927;-71
2023/05/31 02:40:53;;;;;;;;;;;18.40;52.10;;;;;;5093637;28;19920;-71
2023/05/31 02:43:18;;;;;;;;;;;18.40;52.10;;;;;;5094123;28;20333;-71
2023/05/31 02:45:44;;;;;;;;;;;18.40;52.10;;;;;;5093874;28;19924;-70
2023/05/31 02:48:09;;;;;;;;;;;18.30;52.00;;;;;;5095303;28;19927;-71
2023/05/31 02:50:35;;;;;;;;;;;18.30;52.10;;;;;;5093889;28;19921;-70
2023/05/31 02:53:03;;;;;;;;;;;18.30;52.10;;;;;;5094067;28;19967;-70
2023/05/31 02:55:29;;;;;;;;;;;18.30;52.00;;;;;;5094018;28;20019;-70
2023/05/31 02:57:55;;;;;;;;;;;18.30;52.10;;;;;;5094364;28;20015;-70
2023/05/31 03:00:21;;;;;;;;;;;18.30;52.10;;;;;;5093718;28;20022;-71
2023/05/31 03:02:46;;;;;;;;;;;18.30;52.10;;;;;;5094708;28;20014;-71
2023/05/31 03:05:12;;;;;;;;;;;18.50;52.10;;;;;;5093595;28;19927;-71
2023/05/31 03:07:37;;;;;;;;;;;18.70;51.70;;;;;;5093210;28;19935;-70
2023/05/31 03:10:04;;;;;;;;;;;19.00;51.20;;;;;;5094185;28;20334;-71
2023/05/31 03:12:30;;;;;;;;;;;19.20;50.50;;;;;;5093509;28;20354;-71
2023/05/31 03:14:55;;;;;;;;;;;19.70;49.90;;;;;;5093638;28;20007;-71
2023/05/31 03:17:21;;;;;;;;;;;20.20;48.90;;;;;;5094390;28;19920;-71
2023/05/31 03:19:47;;;;;;;;;;;20.80;47.90;;;;;;5093444;28;19952;-70
2023/05/31 03:22:12;;;;;;;;;;;21.30;46.80;;;;;;5093216;28;19920;-71
2023/05/31 03:24:38;;;;;;;;;;;21.70;45.80;;;;;;5094408;28;19981;-72
2023/05/31 03:27:03;;;;;;;;;;;22.10;45.10;;;;;;5108259;28;19985;-71
2023/05/31 03:29:29;;;;;;;;;;;22.60;44.50;;;;;;5096455;28;19919;-72
2023/05/31 03:31:55;;;;;;;;;;;22.70;43.90;;;;;;5096468;28;19927;-71
2023/05/31 03:34:22;;;;;;;;;;;22.90;43.50;;;;;;5096700;28;19920;-71
2023/05/31 03:36:48;;;;;;;;;;;23.00;43.00;;;;;;5096160;28;20430;-71
2023/05/31 03:39:13;;;;;;;;;;;23.10;42.90;;;;;;5095990;28;19924;-71
2023/05/31 03:41:39;;;;;;;;;;;23.00;42.70;;;;;;5096184;28;19927;-71
2023/05/31 03:44:04;;;;;;;;;;;23.00;42.80;;;;;;5114472;28;20336;-71
2023/05/31 03:46:30;;;;;;;;;;;22.80;42.80;;;;;;5096217;28;19924;-69
2023/05/31 03:48:55;;;;;;;;;;;22.70;42.90;;;;;;5095794;28;20278;-70
2023/05/31 03:51:21;;;;;;;;;;;22.60;43.10;;;;;;5095584;28;19919;-70
2023/05/31 03:53:46;;;;;;;;;;;22.50;43.40;;;;;;5096348;28;19949;-70
2023/05/31 03:56:12;;;;;;;;;;;22.30;43.50;;;;;;5096305;28;19977;-70
2023/05/31 03:58:38;;;;;;;;;;;22.20;43.70;;;;;;5114174;28;19923;-71
2023/05/31 04:01:04;;;;;;;;;;;22.00;44.00;;;;;;5096088;28;20398;-71
2023/05/31 04:03:29;;;;;;;;;;;21.90;44.20;;;;;;5114105;28;19955;-70
2023/05/31 04:05:55;;;;;;;;;;;21.70;44.50;;;;;;5095644;28;20362;-70
2023/05/31 04:08:20;;;;;;;;;;;21.50;44.60;;;;;;5096154;28;19920;-70
2023/05/31 04:10:46;;;;;;;;;;;21.40;44.90;;;;;;5095539;28;19927;-71
2023/05/31 04:13:11;;;;;;;;;;;21.30;45.90;;;;;;5114046;28;19919;-70
2023/05/31 04:15:37;;;;;;;;;;;21.20;45.40;;;;;;5129681;27;20296;-71
2023/05/31 04:18:02;;;;;;;;;;;21.00;45.60;;;;;;5125486;27;19924;-71
2023/05/31 04:20:28;;;;;;;;;;;21.00;45.80;;;;;;5093736;28;19943;-71
2023/05/31 04:22:53;;;;;;;;;;;20.90;46.00;;;;;;5075030;28;19924;-71
2023/05/31 04:25:19;;;;;;;;;;;21.00;46.10;;;;;;5093257;28;19920;-71
2023/05/31 04:27:45;;;;;;;;;;;21.00;46.10;;;;;;5108430;28;19928;-70
2023/05/31 04:30:11;;;;;;;;;;;21.10;45.90;;;;;;5108616;28;20395;-71
2023/05/31 04:32:38;;;;;;;;;;;21.20;45.80;;;;;;5074305;28;19920;-71
2023/05/31 04:35:04;;;;;;;;;;;21.20;45.50;;;;;;5073918;28;19966;-70
2023/05/31 04:37:30;;;;;;;;;;;21.30;46.10;;;;;;5107847;28;19954;-70
2023/05/31 04:39:56;;;;;;;;;;;21.40;45.30;;;;;;5073731;28;19927;-71
2023/05/31 04:42:24;;;;;;;;;;;21.40;45.20;;;;;;5092088;28;19920;-71
2023/05/31 04:44:51;;;;;;;;;;;21.40;45.00;;;;;;5107765;28;19920;-71
2023/05/31 04:47:18;;;;;;;;;;;21.50;45.00;;;;;;5073503;28;19924;-70
2023/05/31 04:49:45;;;;;;;;;;;21.60;45.10;;;;;;5092179;28;19931;-71
2023/05/31 04:52:11;;;;;;;;;;;21.60;45.00;;;;;;5074546;28;19920;-71
2023/05/31 04:54:36;;;;;;;;;;;21.60;44.90;;;;;;5109352;28;20264;-70
2023/05/31 04:57:02;;;;;;;;;;;21.60;44.80;;;;;;5112493;28;20379;-71
2023/05/31 04:59:28;;;;;;;;;;;21.60;44.70;;;;;;5094217;28;19927;-71
2023/05/31 05:01:53;;;;;;;;;;;21.60;44.80;;;;;;5112447;28;19927;-71
2023/05/31 05:04:19;;;;;;;;;;;21.60;44.80;;;;;;5112368;28;20375;-71
2023/05/31 05:06:44;;;;;;;;;;;21.60;44.80;;;;;;5093720;28;20014;-70
2023/05/31 05:09:10;;;;;;;;;;;21.60;44.80;;;;;;5093614;28;20403;-71
2023/05/31 05:11:35;;;;;;;;;;;21.50;44.80;;;;;;5093968;28;19920;-71
2023/05/31 05:14:01;;;;;;;;;;;21.50;44.90;;;;;;5093953;28;19927;-71
2023/05/31 05:16:26;;;;;;;;;;;21.50;44.90;;;;;;5112727;28;19927;-71
2023/05/31 05:18:52;;;;;;;;;;;21.50;45.00;;;;;;5094452;28;20405;-72
2023/05/31 05:21:17;;;;;;;;;;;21.40;45.00;;;;;;5128630;27;19971;-70
2023/05/31 05:23:43;;;;;;;;;;;21.40;45.00;;;;;;5094990;28;20413;-70
2023/05/31 05:26:08;;;;;;;;;;;21.40;45.10;;;;;;5094121;28;19923;-70
2023/05/31 05:28:34;;;;;;;;;;;21.40;45.00;;;;;;5128545;28;20200;-71
2023/05/31 05:31:00;;;;;;;;;;;21.40;45.00;;;;;;5094516;28;19934;-71
2023/05/31 05:33:28;;;;;;;;;;;21.40;45.20;;;;;;5094741;28;20321;-71
2023/05/31 05:35:53;;;;;;;;;;;21.40;45.20;;;;;;5094388;28;19941;-70
2023/05/31 05:38:20;;;;;;;;;;;21.40;45.10;;;;;;5092853;28;20032;-71
2023/05/31 05:40:46;;;;;;;;;;;21.40;45.20;;;;;;5092244;28;19919;-71
2023/05/31 05:43:11;;;;;;;;;;;21.30;45.30;;;;;;5126522;28;20264;-70
2023/05/31 05:45:37;;;;;;;;;;;21.30;45.20;;;;;;5088771;28;19931;-71
2023/05/31 05:48:02;;;;;;;;;;;21.30;45.30;;;;;;5090512;28;20382;-75
2023/05/31 05:50:28;;;;;;;;;;;21.30;45.40;;;;;;5103129;28;20195;-66
2023/05/31 05:52:53;;;;;;;;;;;21.30;46.20;;;;;;5081656;28;19947;-74
2023/05/31 05:55:20;;;;;;;;;;;21.30;45.80;;;;;;5115483;28;20291;-73
2023/05/31 05:57:45;;;;;;;;;;;21.30;45.70;;;;;;5084398;28;19930;-74
2023/05/31 06:00:11;;;;;;;;;;;21.30;45.80;;;;;;5087995;28;19919;-66
2023/05/31 06:02:38;;;;;;;;;;;21.30;45.80;;;;;;5070802;28;19927;-73
2023/05/31 06:05:03;;;;;;;;;;;21.30;45.90;;;;;;5088609;28;20264;-68
2023/05/31 06:07:29;;;;;;;;;;;21.30;46.00;;;;;;5088674;28;19930;-74
2023/05/31 06:09:56;;;;;;;;;;;21.30;46.00;;;;;;5080372;28;19920;-73
2023/05/31 06:12:21;;;;;;;;;;;21.30;46.20;;;;;;5093295;28;20018;-74
2023/05/31 06:14:48;;;;;;;;;;;21.40;46.30;;;;;;5082673;28;20046;-69
2023/05/31 06:17:13;;;;;;;;;;;21.40;46.40;;;;;;5105387;27;19941;-73
2023/05/31 06:19:39;;;;;;;;;;;21.40;46.50;;;;;;5104050;27;19928;-73
2023/05/31 06:22:04;;;;;;;;;;;21.40;46.70;;;;;;5079357;28;19927;-73
2023/05/31 06:24:30;;;;;;;;;;;21.40;46.70;;;;;;5080003;28;19926;-73
2023/05/31 06:26:55;;;;;;;;;;;21.40;46.70;;;;;;5095652;28;19932;-71
2023/05/31 06:29:21;;;;;;;;;;;21.40;46.70;;;;;;5104010;27;19927;-74
2023/05/31 06:31:46;;;;;;;;;;;21.40;46.80;;;;;;5079158;28;19924;-74
2023/05/31 06:34:12;;;;;;;;;;;21.40;46.90;;;;;;5097659;28;19935;-72
2023/05/31 06:36:37;;;;;;;;;;;21.30;47.00;;;;;;5118362;27;20014;-72
2023/05/31 06:39:03;;;;;;;;;;;21.30;47.10;;;;;;5076265;28;19963;-72
2023/05/31 06:41:29;;;;;;;;;;;21.30;47.30;;;;;;5110149;27;19958;-72
2023/05/31 06:43:55;;;;;;;;;;;21.30;47.40;;;;;;5076552;28;19946;-71
2023/05/31 06:46:20;;;;;;;;;;;21.30;47.50;;;;;;5098044;28;19940;-72
2023/05/31 06:48:46;;;;;;;;;;;21.30;47.50;;;;;;5078081;28;19924;-72
2023/05/31 06:51:11;;;;;;;;;;;21.30;47.50;;;;;;5115326;27;19924;-73
2023/05/31 06:53:37;;;;;;;;;;;21.30;47.70;;;;;;5114882;27;19954;-73
2023/05/31 06:56:02;;;;;;;;;;;21.30;47.70;;;;;;5079635;28;19928;-75
2023/05/31 06:58:30;;;;;;;;;;;21.30;47.70;;;;;;5077795;28;19928;-75
2023/05/31 07:00:56;;;;;;;;;;;21.30;47.70;;;;;;5078779;28;19924;-73
2023/05/31 07:03:21;;;;;;;;;;;21.30;47.70;;;;;;5075488;28;19954;-71
2023/05/31 07:05:47;;;;;;;;;;;21.30;47.60;;;;;;5076445;28;19924;-72
2023/05/31 07:08:14;;;;;;;;;;;21.40;47.80;;;;;;5076334;28;19924;-71
2023/05/31 07:10:40;;;;;;;;;;;21.40;47.90;;;;;;5078795;28;19999;-73
2023/05/31 07:13:05;;;;;;;;;;;21.40;48.00;;;;;;5078626;28;20390;-72
2023/05/31 07:15:31;;;;;;;;;;;21.40;47.90;;;;;;5077908;28;19920;-73
2023/05/31 07:17:56;;;;;;;;;;;21.40;48.00;;;;;;5094986;28;19935;-72
2023/05/31 07:20:22;;;;;;;;;;;21.40;48.00;;;;;;5098625;28;19924;-71
2023/05/31 07:22:47;;;;;;;;;;;21.40;48.10;;;;;;5078075;28;19923;-72
2023/05/31 07:25:13;;;;;;;;;;;21.20;48.10;;;;;;5109640;27;20379;-70
2023/05/31 07:27:38;;;;;;;;;;;21.30;48.20;;;;;;5076666;28;19957;-72
2023/05/31 07:30:04;;;;;;;;;;;21.30;48.30;;;;;;5076710;28;20631;-72
2023/05/31 07:32:30;;;;;;;;;;;21.30;48.30;;;;;;5093620;28;19924;-72
2023/05/31 07:34:55;;;;;;;;;;;21.30;48.40;;;;;;5097100;28;19928;-72
2023/05/31 07:37:21;;;;;;;;;;;21.20;48.40;;;;;;5075820;28;19924;-73
2023/05/31 07:39:47;;;;;;;;;;;21.30;48.50;;;;;;5097120;28;19953;-72
2023/05/31 07:42:12;;;;;;;;;;;21.20;48.60;;;;;;5091913;28;19930;-72
2023/05/31 07:44:38;;;;;;;;;;;21.20;48.60;;;;;;5077640;28;20359;-73
2023/05/31 07:47:04;;;;;;;;;;;21.20;48.70;;;;;;5076846;28;20417;-71
2023/05/31 07:49:29;;;;;;;;;;;21.20;48.70;;;;;;5093345;28;20001;-71
2023/05/31 07:51:55;;;;;;;;;;;21.20;48.80;;;;;;5075023;28;19923;-71
2023/05/31 07:54:20;;;;;;;;;;;21.20;48.90;;;;;;5074197;28;19930;-66
2023/05/31 07:56:46;;;;;;;;;;;21.20;49.10;;;;;;5064376;28;19924;-70
2023/05/31 07:59:11;;;;;;;;;;;21.20;49.20;;;;;;5077855;28;19960;-75
2023/05/31 08:01:38;;;;;;;;;;;21.20;49.40;;;;;;5091341;28;19934;-73
2023/05/31 08:04:07;;;;;;;;;;;21.20;49.40;;;;;;5076602;28;19931;-69
2023/05/31 08:06:33;;;;;;;;;;;21.10;49.40;;;;;;5096287;28;20426;-73
2023/05/31 08:08:58;;;;;;;;;;;21.10;49.60;;;;;;5108722;27;19920;-69
2023/05/31 08:11:25;;;;;;;;;;;21.10;49.70;;;;;;5097233;28;20344;-70
2023/05/31 08:13:51;;;;;;;;;;;21.10;49.70;;;;;;5095613;28;20022;-71
2023/05/31 08:16:17;;;;;;;;;;;21.00;49.70;;;;;;5077091;28;19999;-70
2023/05/31 08:18:43;;;;;;;;;;;21.10;50.00;;;;;;5096409;28;19927;-72
2023/05/31 08:21:08;;;;;;;;;;;21.00;50.10;;;;;;5114819;27;19924;-72
2023/05/31 08:23:34;;;;;;;;;;;21.00;50.20;;;;;;5094463;28;20303;-72
2023/05/31 08:25:59;;;;;;;;;;;21.00;50.50;;;;;;5097378;28;20028;-72
2023/05/31 08:28:25;;;;;;;;;;;21.00;50.60;;;;;;5095999;28;19928;-72
2023/05/31 08:30:50;;;;;;;;;;;20.90;50.60;;;;;;5078901;28;20750;-72
2023/05/31 08:33:16;;;;;;;;;;;20.90;50.60;;;;;;5075078;28;20677;-70
2023/05/31 08:35:41;;;;;;;;;;;20.80;50.50;;;;;;5067448;28;19920;-71
2023/05/31 08:38:07;;;;;;;;;;;20.80;50.60;;;;;;5072435;28;19945;-68
2023/05/31 08:40:32;;;;;;;;;;;20.80;50.80;;;;;;5072194;28;20282;-72
2023/05/31 08:43:07;;;;;;;;;;;20.80;50.90;;;;;;5073792;28;19928;-68
2023/05/31 08:45:34;;;;;;;;;;;20.70;50.90;;;;;;5091902;28;19955;-73
2023/05/31 08:50:42;;;;;;;;;;;20.70;51.20;;;;;;5079557;27;19927;-68
2023/05/31 08:53:08;;;;;;;;;;;20.70;51.50;;;;;;5078019;28;19931;-70
2023/05/31 08:55:34;;;;;;;;;;;20.70;51.90;;;;;;5077190;28;19928;-69
2023/05/31 08:58:02;;;;;;;;;;;20.70;52.30;;;;;;5110738;27;20046;-70
2023/05/31 09:00:28;;;;;;;;;;;20.70;52.40;;;;;;5105519;27;19928;-72
2023/05/31 09:02:53;;;;;;;;;;;20.70;53.30;;;;;;5070217;28;19930;-72
2023/05/31 09:05:19;;;;;;;;;;;20.70;53.50;;;;;;5072111;28;19925;-72
2023/05/31 09:07:46;;;;;;;;;;;20.70;53.40;;;;;;5104797;27;19928;-73
2023/05/31 09:10:14;;;;;;;;;;;20.70;53.50;;;;;;5075364;28;19967;-71
2023/05/31 09:12:40;;;;;;;;;;;20.70;53.40;;;;;;5077065;28;19925;-67
2023/05/31 09:15:06;;;;;;;;;;;20.70;53.40;;;;;;5076031;28;19924;-68
2023/05/31 09:17:32;;;;;;;;;;;20.70;53.30;;;;;;5079786;28;19929;-70
2023/05/31 09:19:58;;;;;;;;;;;20.70;53.40;;;;;;5080519;28;20448;-71
2023/05/31 09:22:24;;;;;;;;;;;20.70;53.30;;;;;;5116420;27;19924;-69
2023/05/31 09:24:57;;;;;;;;;;;20.70;53.30;;;;;;5080043;28;20058;-70
2023/05/31 09:27:23;;;;;;;;;;;20.70;53.20;;;;;;5078783;28;19928;-68
2023/05/31 09:29:51;;;;;;;;;;;20.70;53.20;;;;;;5079391;28;19928;-68
2023/05/31 09:32:17;;;;;;;;;;;20.70;53.10;;;;;;5074546;28;19951;-68
2023/05/31 09:34:42;;;;;;;;;;;20.70;53.20;;;;;;5081259;28;19924;-66
2023/05/31 09:37:08;;;;;;;;;;;20.70;52.90;;;;;;5074000;28;19925;-66
2023/05/31 09:39:34;;;;;;;;;;;20.70;53.20;;;;;;5074514;28;19924;-67
2023/05/31 09:42:00;;;;;;;;;;;20.60;53.00;;;;;;5076660;28;19920;-70
2023/05/31 09:44:28;;;;;;;;;;;20.70;53.20;;;;;;5077650;28;19935;-69
2023/05/31 09:46:54;;;;;;;;;;;20.70;53.20;;;;;;5072978;28;20287;-72
2023/05/31 09:49:20;;;;;;;;;;;20.70;53.30;;;;;;5104509;27;20382;-68
2023/05/31 09:51:52;;;;;;;;;;;20.70;53.30;;;;;;5110279;27;19938;-68
2023/05/31 09:54:22;;;;;;;;;;;20.80;53.20;;;;;;5082587;28;19964;-67
2023/05/31 09:56:48;;;;;;;;;;;20.80;53.20;;;;;;5112348;27;20031;-67
2023/05/31 09:59:15;;;;;;;;;;;20.80;53.10;;;;;;5077555;28;20015;-68
2023/05/31 10:01:40;;;;;;;;;;;20.80;53.00;;;;;;5063400;28;19925;-70
2023/05/31 10:04:06;;;;;;;;;;;20.80;53.00;;;;;;5093265;27;19947;-71
2023/05/31 10:06:36;;;;;;;;;;;20.80;53.20;;;;;;5057578;28;20027;-70
2023/05/31 10:09:02;;;;;;;;;;;20.80;53.10;;;;;;5055735;28;19928;-71
2023/05/31 10:11:31;;;;;;;;;;;20.80;53.10;;;;;;5093492;27;20026;-70
2023/05/31 10:13:59;;;;;;;;;;;20.70;53.10;;;;;;5052639;28;20632;-66
2023/05/31 10:16:26;;;;;;;;;;;20.80;53.40;;;;;;5063794;28;19925;-71
2023/05/31 10:18:54;;;;;;;;;;;20.80;53.60;;;;;;5069624;28;19928;-69
2023/05/31 10:21:23;;;;;;;;;;;20.80;53.70;;;;;;5060567;28;19924;-70
2023/05/31 10:24:09;;;;;;;;;;;20.90;53.90;;;;;;5070779;28;19924;-68
2023/05/31 10:29:17;;;;;;;;;;;20.90;54.10;;;;;;5083618;27;19927;-67
2023/05/31 10:31:47;;;;;;;;;;;20.90;53.90;;;;;;5084880;28;19927;-66
2023/05/31 10:37:03;;;;;;;;;;;20.90;54.10;;;;;;5063948;27;19921;-66
2023/05/31 10:39:32;;;;;;;;;;;20.90;54.10;;;;;;5047331;28;19921;-66
2023/05/31 10:42:09;;;;;;;;;;;20.90;54.10;;;;;;5053826;28;19943;-65
2023/05/31 10:44:38;;;;;;;;;;;20.90;53.90;;;;;;5049480;28;19925;-65
2023/05/31 10:47:07;;;;;;;;;;;21.00;54.10;;;;;;5049495;28;19937;-66
2023/05/31 10:49:36;;;;;;;;;;;21.00;54.20;;;;;;5037915;28;19939;-66
2023/05/31 10:52:05;;;;;;;;;;;21.00;53.90;;;;;;5041100;28;19925;-65
2023/05/31 10:54:31;;;;;;;;;;;21.00;54.20;;;;;;5047644;28;20575;-69
2023/05/31 10:56:58;;;;;;;;;;;21.00;54.10;;;;;;5034612;28;20019;-67
2023/05/31 10:59:23;;;;;;;;;;;21.10;54.50;;;;;;5032487;28;19924;-66
2023/05/31 11:01:50;;;;;;;;;;;21.00;54.40;;;;;;5032983;28;19921;-69
2023/05/31 11:04:20;;;;;;;;;;;21.10;54.60;;;;;;5049671;28;20427;-66
2023/05/31 11:06:47;;;;;;;;;;;21.00;54.40;;;;;;5035052;28;19958;-67
2023/05/31 11:09:15;;;;;;;;;;;21.00;54.40;;;;;;5052395;28;19925;-69
2023/05/31 11:19:43;;;;;;;;;;;21.00;55.30;;;;;;5095268;27;19924;-66
2023/05/31 11:22:10;;;;;;;;;;;21.00;54.90;;;;;;5091467;28;19924;-68
2023/05/31 11:24:37;;;;;;;;;;;21.00;55.00;;;;;;5089437;28;19921;-68
2023/05/31 11:27:05;;;;;;;;;;;21.00;54.80;;;;;;5093403;28;19920;-75
2023/05/31 11:35:15;;;;;;;;;;;21.00;54.90;;;;;;5094060;27;19913;-69
2023/05/31 11:37:42;;;;;;;;;;;21.00;54.90;;;;;;5084831;28;20003;-70
2023/05/31 11:40:09;;;;;;;;;;;21.00;55.00;;;;;;5082691;28;19927;-67
2023/05/31 11:42:36;;;;;;;;;;;21.10;55.10;;;;;;5084697;28;20383;-67
2023/05/31 11:45:04;;;;;;;;;;;21.10;55.00;;;;;;5086329;28;19928;-67
2023/05/31 11:47:32;;;;;;;;;;;21.10;55.00;;;;;;5086784;28;19925;-67
2023/05/31 11:49:57;;;;;;;;;;;21.10;55.00;;;;;;5086019;28;19920;-67
2023/05/31 11:52:23;;;;;;;;;;;21.10;55.00;;;;;;5085491;28;19927;-67
2023/05/31 11:54:49;;;;;;;;;;;21.10;54.90;;;;;;5084001;28;19924;-67
2023/05/31 11:57:16;;;;;;;;;;;21.10;55.10;;;;;;5083152;28;19935;-67
2023/05/31 11:59:42;;;;;;;;;;;21.10;55.20;;;;;;5109732;28;19920;-67
2023/05/31 12:02:08;;;;;;;;;;;21.10;55.30;;;;;;5082735;28;19977;-67
2023/05/31 12:04:38;;;;;;;;;;;21.10;55.30;;;;;;5072056;28;20007;-67
2023/05/31 12:07:04;;;;;;;;;;;21.10;55.30;;;;;;5085417;28;19928;-66
2023/05/31 12:09:30;;;;;;;;;;;21.10;55.30;;;;;;5084230;28;20374;-66
2023/05/31 12:11:56;;;;;;;;;;;21.10;55.40;;;;;;5081285;28;19964;-66
2023/05/31 12:14:22;;;;;;;;;;;21.10;55.40;;;;;;5079252;28;19929;-67
2023/05/31 12:16:49;;;;;;;;;;;21.10;55.30;;;;;;5082373;28;19920;-66
2023/05/31 12:19:15;;;;;;;;;;;21.10;55.30;;;;;;5082958;28;19927;-67
2023/05/31 12:21:41;;;;;;;;;;;21.10;55.20;;;;;;5111640;28;20291;-66
2023/05/31 12:24:15;;;;;;;;;;;21.10;55.20;;;;;;5084705;28;19927;-66
2023/05/31 12:26:42;;;;;;;;;;;21.10;55.20;;;;;;5082658;28;19924;-67
2023/05/31 12:29:08;;;;;;;;;;;21.10;55.30;;;;;;5085165;28;19951;-66
2023/05/31 12:31:35;;;;;;;;;;;21.10;55.20;;;;;;5108651;28;20371;-67
2023/05/31 12:34:08;;;;;;;;;;;21.10;55.40;;;;;;5111059;28;19925;-67
2023/05/31 12:36:38;;;;;;;;;;;21.20;55.50;;;;;;5077255;28;19971;-67
2023/05/31 12:39:12;;;;;;;;;;;21.20;55.50;;;;;;5082874;28;19966;-67
2023/05/31 12:41:41;;;;;;;;;;;21.20;55.70;;;;;;5087047;28;20319;-66
2023/05/31 12:44:07;;;;;;;;;;;21.20;55.90;;;;;;5085352;28;19924;-66
2023/05/31 12:46:40;;;;;;;;;;;21.20;56.00;;;;;;5068751;28;19920;-66
2023/05/31 12:54:43;;;;;;;;;;;21.20;56.10;;;;;;5101206;27;19916;-66
2023/05/31 12:57:09;;;;;;;;;;;21.20;56.00;;;;;;5107773;28;19970;-66
2023/05/31 12:59:35;;;;;;;;;;;21.20;56.00;;;;;;5081854;28;19924;-66
2023/05/31 13:02:01;;;;;;;;;;;21.20;56.10;;;;;;5090074;28;20359;-68
2023/05/31 13:04:26;;;;;;;;;;;21.20;56.00;;;;;;5093590;28;20364;-68
2023/05/31 13:06:52;;;;;;;;;;;21.20;56.00;;;;;;5121623;28;19970;-67
2023/05/31 13:09:18;;;;;;;;;;;21.10;56.80;;;;;;5119739;28;19966;-68
2023/05/31 13:11:44;;;;;;;;;;;21.10;55.90;;;;;;5088435;28;20015;-68
2023/05/31 13:14:10;;;;;;;;;;;21.10;55.90;;;;;;5092424;28;19963;-68
2023/05/31 13:16:36;;;;;;;;;;;21.10;55.90;;;;;;5088823;28;19964;-68
2023/05/31 13:19:02;;;;;;;;;;;21.00;55.90;;;;;;5086584;28;19920;-68
2023/05/31 13:21:29;;;;;;;;;;;21.00;55.90;;;;;;5086686;28;19928;-68
2023/05/31 13:23:55;;;;;;;;;;;21.00;56.00;;;;;;5125661;27;19920;-68
2023/05/31 13:26:22;;;;;;;;;;;20.90;56.00;;;;;;5106912;28;20022;-68
2023/05/31 13:28:47;;;;;;;;;;;20.90;56.00;;;;;;5095236;28;19924;-68
2023/05/31 13:31:13;;;;;;;;;;;20.90;56.00;;;;;;5089111;28;19924;-68
2023/05/31 13:33:38;;;;;;;;;;;20.90;56.10;;;;;;5088583;28;20291;-68
2023/05/31 13:36:04;;;;;;;;;;;20.90;56.10;;;;;;5120773;28;19974;-68
2023/05/31 13:38:30;;;;;;;;;;;20.90;56.10;;;;;;5086442;28;20014;-69
2023/05/31 13:40:55;;;;;;;;;;;20.90;56.10;;;;;;5084678;28;19924;-69
2023/05/31 13:43:23;;;;;;;;;;;20.90;56.10;;;;;;5098419;28;19919;-68
2023/05/31 13:45:50;;;;;;;;;;;20.90;56.10;;;;;;5141717;27;19924;-68
2023/05/31 13:48:15;;;;;;;;;;;20.90;56.10;;;;;;5090147;28;19926;-68
2023/05/31 13:50:41;;;;;;;;;;;20.90;56.10;;;;;;5103863;28;20019;-69
2023/05/31 13:53:07;;;;;;;;;;;20.80;56.00;;;;;;5116184;28;19924;-69
2023/05/31 13:55:32;;;;;;;;;;;20.80;56.10;;;;;;5099066;28;19928;-69
2023/05/31 13:57:58;;;;;;;;;;;20.80;56.10;;;;;;5094516;28;19927;-69
2023/05/31 14:00:24;;;;;;;;;;;20.80;56.00;;;;;;5080464;28;19924;-69
2023/05/31 14:02:51;;;;;;;;;;;20.80;56.00;;;;;;5088388;28;19920;-70
2023/05/31 14:05:17;;;;;;;;;;;20.80;56.10;;;;;;5078891;28;19927;-79
2023/05/31 14:07:43;;;;;;;;;;;20.90;56.70;;;;;;5093846;28;20387;-69
2023/05/31 14:10:09;;;;;;;;;;;20.90;58.00;;;;;;5092981;28;19921;-67
2023/05/31 14:12:34;;;;;;;;;;;21.10;57.40;;;;;;5075263;28;19924;-67
2023/05/31 14:15:00;;;;;;;;;;;21.10;57.10;;;;;;5075834;28;19920;-68
2023/05/31 14:17:26;;;;;;;;;;;21.20;57.20;;;;;;5093180;28;20010;-67
2023/05/31 14:19:51;;;;;;;;;;;21.30;57.10;;;;;;5109311;28;19920;-69
2023/05/31 14:22:17;;;;;;;;;;;21.30;56.70;;;;;;5093608;28;19920;-69
2023/05/31 14:24:42;;;;;;;;;;;21.30;56.60;;;;;;5094589;28;19920;-69
2023/05/31 14:27:08;;;;;;;;;;;21.30;56.60;;;;;;5094219;28;20444;-69
2023/05/31 14:29:33;;;;;;;;;;;21.30;56.60;;;;;;5076590;28;19924;-69
2023/05/31 14:31:59;;;;;;;;;;;21.20;56.50;;;;;;5076443;28;19920;-69
2023/05/31 14:34:25;;;;;;;;;;;21.20;56.50;;;;;;5094477;28;20011;-69
2023/05/31 14:36:51;;;;;;;;;;;21.20;56.50;;;;;;5076786;28;19920;-69
2023/05/31 14:39:16;;;;;;;;;;;21.20;56.50;;;;;;5109317;28;19925;-69
2023/05/31 14:41:42;;;;;;;;;;;21.10;56.40;;;;;;5110126;28;19974;-69
2023/05/31 14:44:07;;;;;;;;;;;21.10;56.50;;;;;;5094460;28;20438;-69